Pagina principală
METAR-TAF:

METAR-TAF

Aeroporturi :

Wellington, Noua Zeelandă

Latitudine: 41-20S, longitudine: 174-48E, elevație: 12 m

Observații meteo curente

Raportul a fost făcut în urmă cu 26 de minute, la 15:00 UTC
Vânt 4 kt de la Nord-est
Temperatură 10°C
Umiditate 76%
Presiune 1011 hPa
Vizibilitate de 10 km sau mai mult

METAR: NZWN 121500Z AUTO 04004KT 9999 BKN038/// 10/06 Q1011

Ora: 03:26 (15:26 UTC)

Prognoză

Raportul a fost făcut în urmă cu 1 oră și 20 de minute, la 14:06 UTC
Prognoză valabilă de la 12 ora 15 UTC la 13 ora 18 UTC
Vânt 8 kt de la Nord/Nord-est
Vizibilitate de 10 km sau mai mult
Nori puțini la o înălțime de 3000 picior
Temporar
de la 13 ora 14 UTC la 13 ora 18 UTC
Vizibilitate: 6000 m
ploaie,

TAF: NZWN 121406Z 1215/1318 02008KT 9999 FEW030 TEMPO 1314/1318 6000 RA

Observații și prognoze meteo pentru peste 4.000 de aeroporturi (rapoarte METAR și TAF).

Stațiile disponibile sunt reprezentate pe hartă prin puncte galbene și roșii.

Țineți indicatorul mouse-ului pe punctul dorit pentru a vedea denumirea stației.

Apoi, faceți clic pentru a vedea observațiile și prognozele meteorologice.

Pentru a schimba harta: Pentru mărire, faceți clic pe butoanele verzi cu cruce neagră; pentru micșorare, pe butonul verde cu o liniuță; pentru hărți învecinate, pe săgețile verzi.


METAR-TAF: